sensor_id;sensor_type;location;lat;lon;timestamp;pressure;altitude;pressure_sealevel;temperature;humidity
77077;BME280;66003;52.286;104.306;2023-04-16T00:00:00;95659.38;;;5.06;33.58
77077;BME280;66003;52.286;104.306;2023-04-16T00:02:34;95665.44;;;5.12;34.46
77077;BME280;66003;52.286;104.306;2023-04-16T00:05:00;95612.44;;;4.81;33.75
77077;BME280;66003;52.286;104.306;2023-04-16T00:07:27;95626.53;;;5.12;32.99
77077;BME280;66003;52.286;104.306;2023-04-16T00:09:53;95671.38;;;5.54;32.74
77077;BME280;66003;52.286;104.306;2023-04-16T00:12:20;95665.84;;;5.76;32.48
77077;BME280;66003;52.286;104.306;2023-04-16T00:14:47;95646.47;;;5.80;33.50
77077;BME280;66003;52.286;104.306;2023-04-16T00:17:14;95644.09;;;6.04;32.22
77077;BME280;66003;52.286;104.306;2023-04-16T00:19:40;95663.38;;;6.50;32.28
77077;BME280;66003;52.286;104.306;2023-04-16T00:22:06;95671.81;;;6.73;31.13
77077;BME280;66003;52.286;104.306;2023-04-16T00:24:33;95666.72;;;6.92;30.49
77077;BME280;66003;52.286;104.306;2023-04-16T00:26:59;95647.66;;;6.74;30.17
77077;BME280;66003;52.286;104.306;2023-04-16T00:29:26;95663.19;;;7.06;30.52
77077;BME280;66003;52.286;104.306;2023-04-16T00:31:53;95627.16;;;6.85;30.19
77077;BME280;66003;52.286;104.306;2023-04-16T00:34:20;95625.28;;;6.85;30.45
77077;BME280;66003;52.286;104.306;2023-04-16T00:36:46;95653.53;;;7.20;30.02
77077;BME280;66003;52.286;104.306;2023-04-16T00:39:12;95661.78;;;7.24;29.31
77077;BME280;66003;52.286;104.306;2023-04-16T00:41:38;95641.50;;;7.38;29.49
77077;BME280;66003;52.286;104.306;2023-04-16T00:44:05;95670.59;;;7.97;29.28
77077;BME280;66003;52.286;104.306;2023-04-16T00:46:31;95663.75;;;9.39;28.06
77077;BME280;66003;52.286;104.306;2023-04-16T00:48:59;95632.44;;;13.12;24.33
77077;BME280;66003;52.286;104.306;2023-04-16T00:51:26;95621.63;;;16.95;19.12
77077;BME280;66003;52.286;104.306;2023-04-16T00:53:52;95623.06;;;17.66;17.89
77077;BME280;66003;52.286;104.306;2023-04-16T00:56:19;95626.88;;;17.53;18.76
77077;BME280;66003;52.286;104.306;2023-04-16T00:58:57;95633.84;;;16.36;19.30
77077;BME280;66003;52.286;104.306;2023-04-16T01:01:36;95621.47;;;15.69;19.88
77077;BME280;66003;52.286;104.306;2023-04-16T01:04:04;95636.53;;;16.23;19.51
77077;BME280;66003;52.286;104.306;2023-04-16T01:06:33;95609.81;;;17.00;18.46
77077;BME280;66003;52.286;104.306;2023-04-16T01:09:05;95600.47;;;19.36;16.89
77077;BME280;66003;52.286;104.306;2023-04-16T01:11:31;95623.16;;;21.77;15.09
77077;BME280;66003;52.286;104.306;2023-04-16T01:13:57;95632.72;;;24.07;14.10
77077;BME280;66003;52.286;104.306;2023-04-16T01:16:23;95549.34;;;24.24;13.53
77077;BME280;66003;52.286;104.306;2023-04-16T01:18:51;95610.44;;;25.24;12.43
77077;BME280;66003;52.286;104.306;2023-04-16T01:21:17;95638.84;;;26.12;12.08
77077;BME280;66003;52.286;104.306;2023-04-16T01:23:43;95619.09;;;26.63;11.74
77077;BME280;66003;52.286;104.306;2023-04-16T01:26:10;95615.75;;;27.48;11.39
77077;BME280;66003;52.286;104.306;2023-04-16T01:28:36;95636.44;;;28.01;10.57
77077;BME280;66003;52.286;104.306;2023-04-16T01:31:02;95640.94;;;28.56;10.49
77077;BME280;66003;52.286;104.306;2023-04-16T01:33:28;95644.25;;;29.28;10.46
77077;BME280;66003;52.286;104.306;2023-04-16T01:35:55;95654.97;;;29.96;9.85
77077;BME280;66003;52.286;104.306;2023-04-16T01:38:21;95654.31;;;30.31;9.41
77077;BME280;66003;52.286;104.306;2023-04-16T01:40:47;95657.53;;;29.83;9.53
77077;BME280;66003;52.286;104.306;2023-04-16T01:43:13;95668.75;;;29.96;9.28
77077;BME280;66003;52.286;104.306;2023-04-16T01:45:40;95673.59;;;30.31;9.46
77077;BME280;66003;52.286;104.306;2023-04-16T01:48:06;95677.78;;;30.39;9.36
77077;BME280;66003;52.286;104.306;2023-04-16T01:50:33;95677.22;;;30.87;8.54
77077;BME280;66003;52.286;104.306;2023-04-16T01:52:59;95682.00;;;31.03;8.48
77077;BME280;66003;52.286;104.306;2023-04-16T01:55:31;95677.44;;;31.81;8.39
77077;BME280;66003;52.286;104.306;2023-04-16T01:57:58;95652.31;;;31.27;7.98
77077;BME280;66003;52.286;104.306;2023-04-16T02:00:25;95684.59;;;31.63;7.77
77077;BME280;66003;52.286;104.306;2023-04-16T02:02:51;95690.03;;;31.66;8.44
77077;BME280;66003;52.286;104.306;2023-04-16T02:05:18;95685.22;;;30.42;7.77
77077;BME280;66003;52.286;104.306;2023-04-16T02:07:44;95681.91;;;29.07;8.80
77077;BME280;66003;52.286;104.306;2023-04-16T02:10:10;95685.84;;;29.06;9.43
77077;BME280;66003;52.286;104.306;2023-04-16T02:12:37;95655.59;;;28.76;8.77
77077;BME280;66003;52.286;104.306;2023-04-16T02:15:04;95680.72;;;29.35;8.43
77077;BME280;66003;52.286;104.306;2023-04-16T02:17:33;95665.91;;;29.99;8.13
77077;BME280;66003;52.286;104.306;2023-04-16T02:19:59;95675.88;;;30.76;7.86
77077;BME280;66003;52.286;104.306;2023-04-16T02:22:29;95583.59;;;30.61;7.75
77077;BME280;66003;52.286;104.306;2023-04-16T02:24:55;95672.00;;;31.78;7.55
77077;BME280;66003;52.286;104.306;2023-04-16T02:27:21;95651.94;;;31.41;7.94
77077;BME280;66003;52.286;104.306;2023-04-16T02:29:47;95671.72;;;31.88;7.88
77077;BME280;66003;52.286;104.306;2023-04-16T02:32:13;95674.28;;;31.31;8.02
77077;BME280;66003;52.286;104.306;2023-04-16T02:34:39;95670.09;;;28.80;9.00
77077;BME280;66003;52.286;104.306;2023-04-16T02:37:07;95689.19;;;28.26;8.91
77077;BME280;66003;52.286;104.306;2023-04-16T02:39:33;95662.16;;;28.55;8.26
77077;BME280;66003;52.286;104.306;2023-04-16T02:41:59;95633.56;;;28.49;8.28
77077;BME280;66003;52.286;104.306;2023-04-16T02:44:27;95655.09;;;27.79;8.70
77077;BME280;66003;52.286;104.306;2023-04-16T02:46:53;95689.59;;;24.64;9.50
77077;BME280;66003;52.286;104.306;2023-04-16T02:49:19;95688.47;;;21.54;11.12
77077;BME280;66003;52.286;104.306;2023-04-16T02:51:45;95701.94;;;19.07;12.51
77077;BME280;66003;52.286;104.306;2023-04-16T02:54:12;95692.66;;;17.69;13.32
77077;BME280;66003;52.286;104.306;2023-04-16T02:56:38;95649.09;;;16.98;14.05
77077;BME280;66003;52.286;104.306;2023-04-16T02:59:04;95688.38;;;17.68;13.67
77077;BME280;66003;52.286;104.306;2023-04-16T03:01:30;95702.25;;;16.52;14.22
77077;BME280;66003;52.286;104.306;2023-04-16T03:03:56;95703.00;;;15.10;15.24
77077;BME280;66003;52.286;104.306;2023-04-16T03:06:22;95692.75;;;13.97;16.33
77077;BME280;66003;52.286;104.306;2023-04-16T03:08:48;95697.84;;;13.24;17.16
77077;BME280;66003;52.286;104.306;2023-04-16T03:11:15;95712.06;;;12.94;17.42
77077;BME280;66003;52.286;104.306;2023-04-16T03:13:41;95690.25;;;12.56;17.65
77077;BME280;66003;52.286;104.306;2023-04-16T03:16:07;95628.75;;;11.62;18.50
77077;BME280;66003;52.286;104.306;2023-04-16T03:18:33;95689.50;;;11.75;19.03
77077;BME280;66003;52.286;104.306;2023-04-16T03:21:00;95702.84;;;11.39;19.68
77077;BME280;66003;52.286;104.306;2023-04-16T03:23:26;95683.75;;;11.32;19.89
77077;BME280;66003;52.286;104.306;2023-04-16T03:25:52;95703.63;;;12.03;17.84
77077;BME280;66003;52.286;104.306;2023-04-16T03:28:18;95674.19;;;11.53;18.98
77077;BME280;66003;52.286;104.306;2023-04-16T03:30:52;95679.13;;;11.46;19.35
77077;BME280;66003;52.286;104.306;2023-04-16T03:33:19;95706.03;;;11.90;18.37
77077;BME280;66003;52.286;104.306;2023-04-16T03:35:45;95705.38;;;12.07;20.24
77077;BME280;66003;52.286;104.306;2023-04-16T03:38:11;95716.38;;;12.28;17.92
77077;BME280;66003;52.286;104.306;2023-04-16T03:40:38;95688.38;;;11.40;20.82
77077;BME280;66003;52.286;104.306;2023-04-16T03:43:04;95726.16;;;11.74;18.92
77077;BME280;66003;52.286;104.306;2023-04-16T03:45:30;95709.41;;;11.69;18.73
77077;BME280;66003;52.286;104.306;2023-04-16T03:47:56;95704.34;;;11.31;19.05
77077;BME280;66003;52.286;104.306;2023-04-16T03:50:22;95722.06;;;11.00;18.90
77077;BME280;66003;52.286;104.306;2023-04-16T03:52:49;95688.81;;;10.13;19.32
77077;BME280;66003;52.286;104.306;2023-04-16T03:55:15;95728.44;;;9.50;21.38
77077;BME280;66003;52.286;104.306;2023-04-16T03:57:41;95715.47;;;9.20;20.64
77077;BME280;66003;52.286;104.306;2023-04-16T04:00:08;95700.91;;;9.12;21.01
77077;BME280;66003;52.286;104.306;2023-04-16T04:02:34;95681.03;;;9.23;20.47
77077;BME280;66003;52.286;104.306;2023-04-16T04:05:00;95702.91;;;9.63;20.37
77077;BME280;66003;52.286;104.306;2023-04-16T04:07:27;95701.59;;;9.60;20.18
77077;BME280;66003;52.286;104.306;2023-04-16T04:09:53;95701.91;;;9.59;20.19
77077;BME280;66003;52.286;104.306;2023-04-16T04:12:19;95720.47;;;9.45;21.18
77077;BME280;66003;52.286;104.306;2023-04-16T04:14:45;95683.53;;;9.15;20.67
77077;BME280;66003;52.286;104.306;2023-04-16T04:17:12;95717.09;;;9.39;21.90
77077;BME280;66003;52.286;104.306;2023-04-16T04:19:38;95715.94;;;9.46;20.70
77077;BME280;66003;52.286;104.306;2023-04-16T04:22:04;95701.38;;;9.38;20.87
77077;BME280;66003;52.286;104.306;2023-04-16T04:24:30;95688.28;;;9.60;20.50
77077;BME280;66003;52.286;104.306;2023-04-16T04:26:56;95683.16;;;9.83;21.46
77077;BME280;66003;52.286;104.306;2023-04-16T04:29:23;95639.97;;;10.13;21.10
77077;BME280;66003;52.286;104.306;2023-04-16T04:31:50;95683.38;;;10.37;21.13
77077;BME280;66003;52.286;104.306;2023-04-16T04:34:16;95687.94;;;10.50;20.58
77077;BME280;66003;52.286;104.306;2023-04-16T04:36:42;95653.88;;;10.29;20.59
77077;BME280;66003;52.286;104.306;2023-04-16T04:39:08;95670.50;;;10.07;20.68
77077;BME280;66003;52.286;104.306;2023-04-16T04:41:34;95678.97;;;9.39;19.37
77077;BME280;66003;52.286;104.306;2023-04-16T04:44:01;95676.41;;;8.86;20.17
77077;BME280;66003;52.286;104.306;2023-04-16T04:46:27;95662.63;;;8.55;20.67
77077;BME280;66003;52.286;104.306;2023-04-16T04:48:53;95666.03;;;8.37;21.16
77077;BME280;66003;52.286;104.306;2023-04-16T04:51:19;95636.13;;;8.45;21.20
77077;BME280;66003;52.286;104.306;2023-04-16T04:53:45;95665.28;;;9.03;21.49
77077;BME280;66003;52.286;104.306;2023-04-16T04:56:11;95654.59;;;9.27;20.27
77077;BME280;66003;52.286;104.306;2023-04-16T04:58:38;95657.25;;;9.08;20.26
77077;BME280;66003;52.286;104.306;2023-04-16T05:01:04;95611.41;;;8.63;20.54
77077;BME280;66003;52.286;104.306;2023-04-16T05:03:31;95665.06;;;8.76;21.81
77077;BME280;66003;52.286;104.306;2023-04-16T05:05:58;95640.25;;;8.56;21.40
77077;BME280;66003;52.286;104.306;2023-04-16T05:08:25;95648.38;;;8.70;20.59
77077;BME280;66003;52.286;104.306;2023-04-16T05:10:51;95649.09;;;8.52;21.91
77077;BME280;66003;52.286;104.306;2023-04-16T05:13:18;95638.88;;;8.35;21.35
77077;BME280;66003;52.286;104.306;2023-04-16T05:15:44;95636.06;;;8.50;21.03
77077;BME280;66003;52.286;104.306;2023-04-16T05:18:10;95637.09;;;8.54;22.20
77077;BME280;66003;52.286;104.306;2023-04-16T05:20:37;95649.59;;;8.78;20.92
77077;BME280;66003;52.286;104.306;2023-04-16T05:23:03;95653.41;;;8.72;21.71
77077;BME280;66003;52.286;104.306;2023-04-16T05:25:29;95628.41;;;8.67;21.26
77077;BME280;66003;52.286;104.306;2023-04-16T05:27:55;95666.16;;;8.75;21.81
77077;BME280;66003;52.286;104.306;2023-04-16T05:30:21;95636.84;;;8.51;22.33
77077;BME280;66003;52.286;104.306;2023-04-16T05:32:48;95626.53;;;8.44;21.28
77077;BME280;66003;52.286;104.306;2023-04-16T05:35:14;95664.91;;;8.67;21.68
77077;BME280;66003;52.286;104.306;2023-04-16T05:37:40;95629.47;;;8.43;21.85
77077;BME280;66003;52.286;104.306;2023-04-16T05:40:07;95655.16;;;8.81;21.29
77077;BME280;66003;52.286;104.306;2023-04-16T05:42:34;95661.41;;;8.95;20.61
77077;BME280;66003;52.286;104.306;2023-04-16T05:45:01;95664.78;;;9.44;20.25
77077;BME280;66003;52.286;104.306;2023-04-16T05:47:38;95658.06;;;9.46;21.26
77077;BME280;66003;52.286;104.306;2023-04-16T05:50:05;95658.16;;;9.78;20.86
77077;BME280;66003;52.286;104.306;2023-04-16T05:52:31;95663.75;;;9.77;20.46
77077;BME280;66003;52.286;104.306;2023-04-16T05:54:58;95654.03;;;9.67;20.85
77077;BME280;66003;52.286;104.306;2023-04-16T05:57:27;95616.69;;;9.49;21.63
77077;BME280;66003;52.286;104.306;2023-04-16T05:59:54;95622.97;;;9.39;21.15
77077;BME280;66003;52.286;104.306;2023-04-16T06:02:20;95616.28;;;9.41;20.75
77077;BME280;66003;52.286;104.306;2023-04-16T06:04:46;95608.28;;;9.41;20.91
77077;BME280;66003;52.286;104.306;2023-04-16T06:07:12;95646.31;;;9.66;21.20
77077;BME280;66003;52.286;104.306;2023-04-16T06:09:38;95646.91;;;9.63;21.56
77077;BME280;66003;52.286;104.306;2023-04-16T06:12:05;95645.19;;;9.53;20.76
77077;BME280;66003;52.286;104.306;2023-04-16T06:14:31;95608.13;;;9.14;21.27
77077;BME280;66003;52.286;104.306;2023-04-16T06:16:57;95637.59;;;9.23;21.29
77077;BME280;66003;52.286;104.306;2023-04-16T06:19:23;95586.34;;;8.88;22.38
77077;BME280;66003;52.286;104.306;2023-04-16T06:21:51;95607.75;;;9.21;21.26
77077;BME280;66003;52.286;104.306;2023-04-16T06:24:18;95621.31;;;9.43;21.60
77077;BME280;66003;52.286;104.306;2023-04-16T06:26:44;95627.50;;;9.57;21.24
77077;BME280;66003;52.286;104.306;2023-04-16T06:29:10;95591.97;;;9.62;21.21
77077;BME280;66003;52.286;104.306;2023-04-16T06:31:37;95615.28;;;9.89;20.69
77077;BME280;66003;52.286;104.306;2023-04-16T06:34:03;95612.84;;;9.73;20.27
77077;BME280;66003;52.286;104.306;2023-04-16T06:36:29;95584.25;;;9.60;20.68
77077;BME280;66003;52.286;104.306;2023-04-16T06:38:55;95579.13;;;9.64;20.35
77077;BME280;66003;52.286;104.306;2023-04-16T06:41:22;95564.88;;;9.55;21.17
77077;BME280;66003;52.286;104.306;2023-04-16T06:43:50;95609.47;;;10.00;20.58
77077;BME280;66003;52.286;104.306;2023-04-16T06:46:16;95608.97;;;10.31;20.57
77077;BME280;66003;52.286;104.306;2023-04-16T06:48:42;95600.78;;;10.55;20.02
77077;BME280;66003;52.286;104.306;2023-04-16T06:51:09;95592.19;;;10.85;19.86
77077;BME280;66003;52.286;104.306;2023-04-16T06:53:36;95585.97;;;11.12;19.35
77077;BME280;66003;52.286;104.306;2023-04-16T06:56:02;95580.81;;;11.29;19.73
77077;BME280;66003;52.286;104.306;2023-04-16T06:58:29;95566.94;;;11.27;19.59
77077;BME280;66003;52.286;104.306;2023-04-16T07:00:55;95542.81;;;11.18;19.32
77077;BME280;66003;52.286;104.306;2023-04-16T07:03:22;95570.22;;;11.46;19.62
77077;BME280;66003;52.286;104.306;2023-04-16T07:05:48;95559.16;;;11.39;19.26
77077;BME280;66003;52.286;104.306;2023-04-16T07:08:14;95526.09;;;11.35;19.50
77077;BME280;66003;52.286;104.306;2023-04-16T07:10:40;95549.28;;;11.62;19.78
77077;BME280;66003;52.286;104.306;2023-04-16T07:13:07;95517.72;;;11.50;18.24
77077;BME280;66003;52.286;104.306;2023-04-16T07:15:33;95452.22;;;11.26;18.95
77077;BME280;66003;52.286;104.306;2023-04-16T07:18:00;95534.31;;;11.83;18.49
77077;BME280;66003;52.286;104.306;2023-04-16T07:20:26;95511.63;;;11.81;18.48
77077;BME280;66003;52.286;104.306;2023-04-16T07:22:52;95545.16;;;11.78;18.29
77077;BME280;66003;52.286;104.306;2023-04-16T07:25:18;95503.72;;;11.53;18.72
77077;BME280;66003;52.286;104.306;2023-04-16T07:27:45;95478.22;;;10.89;18.95
77077;BME280;66003;52.286;104.306;2023-04-16T07:30:11;95534.09;;;11.13;19.76
77077;BME280;66003;52.286;104.306;2023-04-16T07:32:38;95533.59;;;11.11;19.71
77077;BME280;66003;52.286;104.306;2023-04-16T07:35:04;95522.16;;;10.97;19.58
77077;BME280;66003;52.286;104.306;2023-04-16T07:37:30;95539.63;;;11.16;19.51
77077;BME280;66003;52.286;104.306;2023-04-16T07:39:57;95519.31;;;10.79;19.83
77077;BME280;66003;52.286;104.306;2023-04-16T07:42:23;95513.41;;;10.69;19.15
77077;BME280;66003;52.286;104.306;2023-04-16T07:44:49;95527.56;;;10.69;19.56
77077;BME280;66003;52.286;104.306;2023-04-16T07:47:15;95509.88;;;10.46;19.12
77077;BME280;66003;52.286;104.306;2023-04-16T07:49:41;95507.00;;;10.29;18.90
77077;BME280;66003;52.286;104.306;2023-04-16T07:52:08;95509.56;;;10.20;18.93
77077;BME280;66003;52.286;104.306;2023-04-16T07:54:34;95519.81;;;9.99;18.89
77077;BME280;66003;52.286;104.306;2023-04-16T07:57:00;95534.25;;;9.98;19.42
77077;BME280;66003;52.286;104.306;2023-04-16T07:59:27;95486.84;;;9.63;18.99
77077;BME280;66003;52.286;104.306;2023-04-16T08:01:53;95527.28;;;9.84;19.38
77077;BME280;66003;52.286;104.306;2023-04-16T08:04:19;95523.50;;;9.71;19.99
77077;BME280;66003;52.286;104.306;2023-04-16T08:06:50;95521.44;;;9.35;19.71
77077;BME280;66003;52.286;104.306;2023-04-16T08:09:18;95504.53;;;9.08;19.86
77077;BME280;66003;52.286;104.306;2023-04-16T08:11:44;95510.22;;;9.20;20.63
77077;BME280;66003;52.286;104.306;2023-04-16T08:14:10;95518.25;;;9.33;20.05
77077;BME280;66003;52.286;104.306;2023-04-16T08:16:36;95494.34;;;9.10;21.73
77077;BME280;66003;52.286;104.306;2023-04-16T08:19:03;95498.25;;;9.17;21.51
77077;BME280;66003;52.286;104.306;2023-04-16T08:21:30;95504.34;;;9.36;20.71
77077;BME280;66003;52.286;104.306;2023-04-16T08:23:57;95479.66;;;9.12;21.22
77077;BME280;66003;52.286;104.306;2023-04-16T08:26:23;95494.34;;;9.28;21.95
77077;BME280;66003;52.286;104.306;2023-04-16T08:28:49;95493.69;;;9.36;20.96
77077;BME280;66003;52.286;104.306;2023-04-16T08:31:15;95485.06;;;9.26;21.02
77077;BME280;66003;52.286;104.306;2023-04-16T08:33:41;95501.56;;;9.28;20.70
77077;BME280;66003;52.286;104.306;2023-04-16T08:36:08;95506.19;;;9.03;20.94
77077;BME280;66003;52.286;104.306;2023-04-16T08:38:34;95466.00;;;9.00;20.28
77077;BME280;66003;52.286;104.306;2023-04-16T08:41:02;95481.19;;;9.18;20.53
77077;BME280;66003;52.286;104.306;2023-04-16T08:43:32;95493.41;;;9.38;20.81
77077;BME280;66003;52.286;104.306;2023-04-16T08:46:00;95469.94;;;9.21;20.30
77077;BME280;66003;52.286;104.306;2023-04-16T08:48:29;95436.28;;;9.25;20.22
77077;BME280;66003;52.286;104.306;2023-04-16T08:50:59;95449.28;;;9.13;20.17
77077;BME280;66003;52.286;104.306;2023-04-16T08:53:35;95494.84;;;9.30;20.08
77077;BME280;66003;52.286;104.306;2023-04-16T08:56:04;95471.25;;;9.05;20.17
77077;BME280;66003;52.286;104.306;2023-04-16T08:58:35;95415.31;;;8.86;19.97
77077;BME280;66003;52.286;104.306;2023-04-16T09:01:02;95428.84;;;8.90;20.22
77077;BME280;66003;52.286;104.306;2023-04-16T09:03:31;95466.06;;;9.14;20.38
77077;BME280;66003;52.286;104.306;2023-04-16T09:05:57;95480.59;;;9.21;20.57
77077;BME280;66003;52.286;104.306;2023-04-16T09:08:26;95439.50;;;8.90;20.35
77077;BME280;66003;52.286;104.306;2023-04-16T09:10:54;95464.34;;;9.04;20.38
77077;BME280;66003;52.286;104.306;2023-04-16T09:13:20;95444.72;;;8.81;20.33
77077;BME280;66003;52.286;104.306;2023-04-16T09:15:54;95479.03;;;9.01;20.76
77077;BME280;66003;52.286;104.306;2023-04-16T09:18:22;95452.69;;;8.81;20.93
77077;BME280;66003;52.286;104.306;2023-04-16T09:20:49;95455.88;;;8.64;20.71
77077;BME280;66003;52.286;104.306;2023-04-16T09:23:16;95460.41;;;8.64;20.98
77077;BME280;66003;52.286;104.306;2023-04-16T09:25:43;95496.56;;;8.70;21.10
77077;BME280;66003;52.286;104.306;2023-04-16T09:28:13;95496.25;;;8.72;21.18
77077;BME280;66003;52.286;104.306;2023-04-16T09:33:34;95488.84;;;8.68;21.82
77077;BME280;66003;52.286;104.306;2023-04-16T09:36:01;95479.78;;;8.69;21.11
77077;BME280;66003;52.286;104.306;2023-04-16T09:38:44;95482.66;;;8.73;21.20
77077;BME280;66003;52.286;104.306;2023-04-16T09:41:12;95476.28;;;8.50;20.94
77077;BME280;66003;52.286;104.306;2023-04-16T09:44:08;95479.09;;;8.40;21.41
77077;BME280;66003;52.286;104.306;2023-04-16T09:46:36;95451.81;;;8.06;21.82
77077;BME280;66003;52.286;104.306;2023-04-16T09:49:15;95453.06;;;7.89;21.76
77077;BME280;66003;52.286;104.306;2023-04-16T09:51:44;95459.78;;;7.82;21.59
77077;BME280;66003;52.286;104.306;2023-04-16T09:54:11;95496.50;;;7.80;22.25
77077;BME280;66003;52.286;104.306;2023-04-16T09:56:45;95497.38;;;7.75;22.18
77077;BME280;66003;52.286;104.306;2023-04-16T09:59:19;95475.41;;;7.65;21.99
77077;BME280;66003;52.286;104.306;2023-04-16T10:01:46;95501.91;;;7.75;22.43
77077;BME280;66003;52.286;104.306;2023-04-16T10:04:15;95510.72;;;7.94;22.07
77077;BME280;66003;52.286;104.306;2023-04-16T10:06:41;95496.22;;;7.81;21.99
77077;BME280;66003;52.286;104.306;2023-04-16T10:09:08;95482.81;;;7.68;22.05
77077;BME280;66003;52.286;104.306;2023-04-16T10:11:36;95473.91;;;7.53;22.50
77077;BME280;66003;52.286;104.306;2023-04-16T10:14:02;95523.44;;;8.02;22.03
77077;BME280;66003;52.286;104.306;2023-04-16T10:16:28;95502.13;;;7.78;22.40
77077;BME280;66003;52.286;104.306;2023-04-16T10:18:55;95517.72;;;7.90;22.18
77077;BME280;66003;52.286;104.306;2023-04-16T10:21:21;95524.16;;;8.08;22.17
77077;BME280;66003;52.286;104.306;2023-04-16T10:23:48;95506.31;;;7.84;22.39
77077;BME280;66003;52.286;104.306;2023-04-16T10:26:17;95517.91;;;7.93;22.54
77077;BME280;66003;52.286;104.306;2023-04-16T10:28:44;95515.72;;;8.01;22.00
77077;BME280;66003;52.286;104.306;2023-04-16T10:31:11;95511.38;;;8.10;22.06
77077;BME280;66003;52.286;104.306;2023-04-16T10:33:40;95518.75;;;8.42;22.04
77077;BME280;66003;52.286;104.306;2023-04-16T10:36:15;95511.91;;;8.36;21.76
77077;BME280;66003;52.286;104.306;2023-04-16T10:38:47;95468.69;;;7.96;21.67
77077;BME280;66003;52.286;104.306;2023-04-16T10:41:14;95514.50;;;8.41;22.01
77077;BME280;66003;52.286;104.306;2023-04-16T10:43:45;95477.69;;;8.24;21.97
77077;BME280;66003;52.286;104.306;2023-04-16T10:46:18;95505.56;;;8.26;21.96
77077;BME280;66003;52.286;104.306;2023-04-16T10:48:49;95505.97;;;8.15;21.84
77077;BME280;66003;52.286;104.306;2023-04-16T10:51:30;95490.06;;;7.86;21.96
77077;BME280;66003;52.286;104.306;2023-04-16T10:54:22;95438.81;;;7.28;22.31
77077;BME280;66003;52.286;104.306;2023-04-16T10:56:50;95492.66;;;7.38;22.50
77077;BME280;66003;52.286;104.306;2023-04-16T10:59:20;95452.97;;;6.84;23.53
77077;BME280;66003;52.286;104.306;2023-04-16T11:01:53;95471.13;;;7.06;22.55
77077;BME280;66003;52.286;104.306;2023-04-16T11:09:59;95518.00;;;6.86;22.91
77077;BME280;66003;52.286;104.306;2023-04-16T11:12:38;95527.66;;;6.72;24.10
77077;BME280;66003;52.286;104.306;2023-04-16T11:15:07;95502.91;;;6.33;24.19
77077;BME280;66003;52.286;104.306;2023-04-16T11:17:47;95524.66;;;6.35;23.72
77077;BME280;66003;52.286;104.306;2023-04-16T11:20:21;95522.06;;;6.25;24.57
77077;BME280;66003;52.286;104.306;2023-04-16T11:22:49;95525.50;;;6.15;24.96
77077;BME280;66003;52.286;104.306;2023-04-16T11:25:29;95526.59;;;6.04;24.52
77077;BME280;66003;52.286;104.306;2023-04-16T11:27:56;95533.53;;;6.00;25.76
77077;BME280;66003;52.286;104.306;2023-04-16T11:30:34;95506.75;;;5.81;25.12
77077;BME280;66003;52.286;104.306;2023-04-16T11:33:08;95521.88;;;6.01;25.25
77077;BME280;66003;52.286;104.306;2023-04-16T11:35:34;95465.19;;;5.61;24.93
77077;BME280;66003;52.286;104.306;2023-04-16T11:38:01;95536.38;;;6.24;23.76
77077;BME280;66003;52.286;104.306;2023-04-16T11:40:29;95523.16;;;6.08;24.94
77077;BME280;66003;52.286;104.306;2023-04-16T11:43:03;95423.34;;;5.48;25.43
77077;BME280;66003;52.286;104.306;2023-04-16T11:45:37;95494.59;;;5.75;25.54
77077;BME280;66003;52.286;104.306;2023-04-16T11:48:03;95547.31;;;5.87;25.87
77077;BME280;66003;52.286;104.306;2023-04-16T11:50:30;95559.78;;;5.91;25.56
77077;BME280;66003;52.286;104.306;2023-04-16T11:53:02;95568.03;;;5.90;26.05
77077;BME280;66003;52.286;104.306;2023-04-16T11:55:29;95546.81;;;5.69;25.94
77077;BME280;66003;52.286;104.306;2023-04-16T11:57:56;95584.16;;;5.83;26.38
77077;BME280;66003;52.286;104.306;2023-04-16T12:00:22;95532.25;;;5.57;26.71
77077;BME280;66003;52.286;104.306;2023-04-16T12:02:50;95593.19;;;5.82;26.44
77077;BME280;66003;52.286;104.306;2023-04-16T12:05:33;95587.63;;;5.73;25.96
77077;BME280;66003;52.286;104.306;2023-04-16T12:08:02;95592.41;;;5.66;26.11
77077;BME280;66003;52.286;104.306;2023-04-16T12:10:34;95581.56;;;5.53;26.20
77077;BME280;66003;52.286;104.306;2023-04-16T12:13:15;95593.75;;;5.54;26.49
77077;BME280;66003;52.286;104.306;2023-04-16T12:15:46;95566.44;;;5.33;27.23
77077;BME280;66003;52.286;104.306;2023-04-16T12:18:12;95578.09;;;5.37;27.61
77077;BME280;66003;52.286;104.306;2023-04-16T12:20:41;95526.41;;;4.99;26.20
77077;BME280;66003;52.286;104.306;2023-04-16T12:23:08;95556.09;;;5.11;27.05
77077;BME280;66003;52.286;104.306;2023-04-16T12:25:34;95583.38;;;5.27;26.83
77077;BME280;66003;52.286;104.306;2023-04-16T12:28:01;95530.38;;;4.96;27.13
77077;BME280;66003;52.286;104.306;2023-04-16T12:30:28;95540.19;;;5.01;26.98
77077;BME280;66003;52.286;104.306;2023-04-16T12:33:15;95582.88;;;5.30;28.13
77077;BME280;66003;52.286;104.306;2023-04-16T12:35:42;95592.94;;;5.28;27.40
77077;BME280;66003;52.286;104.306;2023-04-16T12:38:10;95604.06;;;5.30;28.87
77077;BME280;66003;52.286;104.306;2023-04-16T12:40:37;95603.50;;;5.33;28.71
77077;BME280;66003;52.286;104.306;2023-04-16T12:43:04;95540.97;;;4.91;27.86
77077;BME280;66003;52.286;104.306;2023-04-16T12:45:30;95590.53;;;5.16;27.85
77077;BME280;66003;52.286;104.306;2023-04-16T12:47:56;95567.75;;;5.15;27.79
77077;BME280;66003;52.286;104.306;2023-04-16T12:50:23;95613.84;;;5.44;27.86
77077;BME280;66003;52.286;104.306;2023-04-16T12:52:49;95591.63;;;5.30;28.27
77077;BME280;66003;52.286;104.306;2023-04-16T12:55:15;95530.13;;;4.93;28.54
77077;BME280;66003;52.286;104.306;2023-04-16T12:57:43;95632.16;;;5.71;28.68